FVCC weather

C.C. Strip
C.C. Strip, Mashonaland West Province, Zimbabwe

Public forecast

Using degrees Celsius for public forecast. Weather courtesy of forecast.io.

Closest aviation weather report (METAR) to C.C. Strip

Report is more than 6 hours old.

Closest report is Robert Gabriel Mugabe International Airport, 54.3 nm (100.7 km) ESE. Retrieved 2020/02/18 09:00 UTC (2 days ago):

FVRG 180900Z VRB06KT 9999 BKN030 24/17 Q1024 NOSIG

Closest aviation forecast (TAF) to C.C. Strip

Forecast is more than 12 hours old.

Closest forecast is Robert Gabriel Mugabe International Airport, 54.3 nm (100.7 km) ESE. Retrieved 2020/02/18 12:00 UTC (1 day ago):

TAF FVRG 181000Z 1812/1918 VRB06KT 9999 BKN030 PROB30 TEMPO 1813/1818 8000 -TSRA FEW030CB BKN090 FM 182000 CAVOK BECMG 1906/1908 SCT020 BECMG 1910/1912 SCT030TCU PROB30 TEMPO 1913/1918 8000 -TSRA FEW030CB BKN090